sensor_id;sensor_type;location;lat;lon;timestamp;P1;durP1;ratioP1;P2;durP2;ratioP2
41923;SDS011;27613;48.116;11.656;2023-07-22T00:01:23;3.47;;;2.08;;
41923;SDS011;27613;48.116;11.656;2023-07-22T00:03:48;2.90;;;2.20;;
41923;SDS011;27613;48.116;11.656;2023-07-22T00:06:14;2.45;;;1.85;;
41923;SDS011;27613;48.116;11.656;2023-07-22T00:08:40;3.42;;;2.35;;
41923;SDS011;27613;48.116;11.656;2023-07-22T00:11:05;2.40;;;1.90;;
41923;SDS011;27613;48.116;11.656;2023-07-22T00:13:32;3.95;;;2.35;;
41923;SDS011;27613;48.116;11.656;2023-07-22T00:15:58;3.63;;;2.35;;
41923;SDS011;27613;48.116;11.656;2023-07-22T00:18:29;5.03;;;2.20;;
41923;SDS011;27613;48.116;11.656;2023-07-22T00:20:55;3.40;;;2.33;;
41923;SDS011;27613;48.116;11.656;2023-07-22T00:23:21;5.15;;;2.33;;
41923;SDS011;27613;48.116;11.656;2023-07-22T00:25:47;3.05;;;2.25;;
41923;SDS011;27613;48.116;11.656;2023-07-22T00:28:13;3.63;;;2.20;;
41923;SDS011;27613;48.116;11.656;2023-07-22T00:30:39;2.80;;;1.80;;
41923;SDS011;27613;48.116;11.656;2023-07-22T00:33:04;3.90;;;1.90;;
41923;SDS011;27613;48.116;11.656;2023-07-22T00:35:30;3.15;;;2.15;;
41923;SDS011;27613;48.116;11.656;2023-07-22T00:37:57;3.53;;;2.00;;
41923;SDS011;27613;48.116;11.656;2023-07-22T00:40:23;4.47;;;2.15;;
41923;SDS011;27613;48.116;11.656;2023-07-22T00:42:48;2.97;;;2.20;;
41923;SDS011;27613;48.116;11.656;2023-07-22T00:45:14;2.95;;;1.95;;
41923;SDS011;27613;48.116;11.656;2023-07-22T00:47:40;2.88;;;1.88;;
41923;SDS011;27613;48.116;11.656;2023-07-22T00:50:06;3.97;;;2.15;;
41923;SDS011;27613;48.116;11.656;2023-07-22T00:52:33;2.97;;;2.17;;
41923;SDS011;27613;48.116;11.656;2023-07-22T00:54:59;3.08;;;2.28;;
41923;SDS011;27613;48.116;11.656;2023-07-22T00:57:26;2.63;;;1.90;;
41923;SDS011;27613;48.116;11.656;2023-07-22T00:59:51;3.95;;;2.45;;
41923;SDS011;27613;48.116;11.656;2023-07-22T01:02:18;4.28;;;2.60;;
41923;SDS011;27613;48.116;11.656;2023-07-22T01:04:44;7.50;;;2.83;;
41923;SDS011;27613;48.116;11.656;2023-07-22T01:07:10;3.28;;;2.35;;
41923;SDS011;27613;48.116;11.656;2023-07-22T01:09:37;5.10;;;2.65;;
41923;SDS011;27613;48.116;11.656;2023-07-22T01:12:03;4.15;;;2.78;;
41923;SDS011;27613;48.116;11.656;2023-07-22T01:14:31;2.80;;;2.13;;
41923;SDS011;27613;48.116;11.656;2023-07-22T01:16:59;3.83;;;2.10;;
41923;SDS011;27613;48.116;11.656;2023-07-22T01:19:26;4.03;;;2.53;;
41923;SDS011;27613;48.116;11.656;2023-07-22T01:21:53;4.78;;;2.40;;
41923;SDS011;27613;48.116;11.656;2023-07-22T01:24:20;3.17;;;2.30;;
41923;SDS011;27613;48.116;11.656;2023-07-22T01:26:46;2.83;;;2.10;;
41923;SDS011;27613;48.116;11.656;2023-07-22T01:29:13;2.60;;;1.95;;
41923;SDS011;27613;48.116;11.656;2023-07-22T01:31:38;2.83;;;2.10;;
41923;SDS011;27613;48.116;11.656;2023-07-22T01:34:04;2.45;;;1.90;;
41923;SDS011;27613;48.116;11.656;2023-07-22T01:36:30;2.85;;;2.20;;
41923;SDS011;27613;48.116;11.656;2023-07-22T01:38:56;3.20;;;2.10;;
41923;SDS011;27613;48.116;11.656;2023-07-22T01:41:21;3.28;;;2.15;;
41923;SDS011;27613;48.116;11.656;2023-07-22T01:43:48;4.05;;;2.55;;
41923;SDS011;27613;48.116;11.656;2023-07-22T01:46:14;3.22;;;2.60;;
41923;SDS011;27613;48.116;11.656;2023-07-22T01:48:39;7.75;;;2.75;;
41923;SDS011;27613;48.116;11.656;2023-07-22T01:51:05;3.55;;;2.53;;
41923;SDS011;27613;48.116;11.656;2023-07-22T01:53:30;5.88;;;3.45;;
41923;SDS011;27613;48.116;11.656;2023-07-22T01:55:57;4.13;;;2.83;;
41923;SDS011;27613;48.116;11.656;2023-07-22T01:58:22;4.78;;;2.75;;
41923;SDS011;27613;48.116;11.656;2023-07-22T02:00:51;3.85;;;2.58;;
41923;SDS011;27613;48.116;11.656;2023-07-22T02:03:16;4.65;;;2.65;;
41923;SDS011;27613;48.116;11.656;2023-07-22T02:05:42;8.60;;;3.08;;
41923;SDS011;27613;48.116;11.656;2023-07-22T02:08:08;3.38;;;2.55;;
41923;SDS011;27613;48.116;11.656;2023-07-22T02:10:35;3.78;;;2.47;;
41923;SDS011;27613;48.116;11.656;2023-07-22T02:13:00;3.10;;;2.42;;
41923;SDS011;27613;48.116;11.656;2023-07-22T02:15:28;3.58;;;2.70;;
41923;SDS011;27613;48.116;11.656;2023-07-22T02:17:53;3.40;;;2.50;;
41923;SDS011;27613;48.116;11.656;2023-07-22T02:20:20;4.35;;;2.70;;
41923;SDS011;27613;48.116;11.656;2023-07-22T02:22:45;4.20;;;2.70;;
41923;SDS011;27613;48.116;11.656;2023-07-22T02:25:11;6.65;;;2.78;;
41923;SDS011;27613;48.116;11.656;2023-07-22T02:27:36;4.45;;;2.85;;
41923;SDS011;27613;48.116;11.656;2023-07-22T02:30:04;3.78;;;2.05;;
41923;SDS011;27613;48.116;11.656;2023-07-22T02:32:30;3.75;;;2.40;;
41923;SDS011;27613;48.116;11.656;2023-07-22T02:34:55;3.80;;;2.33;;
41923;SDS011;27613;48.116;11.656;2023-07-22T02:37:21;5.75;;;2.55;;
41923;SDS011;27613;48.116;11.656;2023-07-22T02:39:46;4.03;;;2.33;;
41923;SDS011;27613;48.116;11.656;2023-07-22T02:42:12;3.20;;;2.30;;
41923;SDS011;27613;48.116;11.656;2023-07-22T02:44:37;3.75;;;2.20;;
41923;SDS011;27613;48.116;11.656;2023-07-22T02:47:03;2.65;;;2.15;;
41923;SDS011;27613;48.116;11.656;2023-07-22T02:49:28;2.58;;;2.00;;
41923;SDS011;27613;48.116;11.656;2023-07-22T02:51:54;3.08;;;2.15;;
41923;SDS011;27613;48.116;11.656;2023-07-22T02:54:20;3.05;;;2.30;;
41923;SDS011;27613;48.116;11.656;2023-07-22T02:56:45;3.00;;;2.15;;
41923;SDS011;27613;48.116;11.656;2023-07-22T02:59:11;2.95;;;2.05;;
41923;SDS011;27613;48.116;11.656;2023-07-22T03:01:36;4.55;;;2.30;;
41923;SDS011;27613;48.116;11.656;2023-07-22T03:04:02;3.72;;;2.33;;
41923;SDS011;27613;48.116;11.656;2023-07-22T03:06:29;3.53;;;2.35;;
41923;SDS011;27613;48.116;11.656;2023-07-22T03:08:55;2.90;;;2.03;;
41923;SDS011;27613;48.116;11.656;2023-07-22T03:11:22;4.32;;;2.42;;
41923;SDS011;27613;48.116;11.656;2023-07-22T03:13:50;3.58;;;2.13;;
41923;SDS011;27613;48.116;11.656;2023-07-22T03:16:16;3.45;;;1.90;;
41923;SDS011;27613;48.116;11.656;2023-07-22T03:18:41;3.50;;;2.33;;
41923;SDS011;27613;48.116;11.656;2023-07-22T03:21:08;3.53;;;2.45;;
41923;SDS011;27613;48.116;11.656;2023-07-22T03:23:34;2.88;;;2.15;;
41923;SDS011;27613;48.116;11.656;2023-07-22T03:25:59;3.55;;;2.28;;
41923;SDS011;27613;48.116;11.656;2023-07-22T03:28:25;3.30;;;2.33;;
41923;SDS011;27613;48.116;11.656;2023-07-22T03:30:51;5.40;;;2.42;;
41923;SDS011;27613;48.116;11.656;2023-07-22T03:33:17;3.38;;;2.55;;
41923;SDS011;27613;48.116;11.656;2023-07-22T03:35:43;3.83;;;2.63;;
41923;SDS011;27613;48.116;11.656;2023-07-22T03:38:09;3.63;;;2.30;;
41923;SDS011;27613;48.116;11.656;2023-07-22T03:40:35;3.50;;;2.40;;
41923;SDS011;27613;48.116;11.656;2023-07-22T03:43:00;3.50;;;2.58;;
41923;SDS011;27613;48.116;11.656;2023-07-22T03:45:26;3.83;;;2.70;;
41923;SDS011;27613;48.116;11.656;2023-07-22T03:47:52;3.97;;;2.50;;
41923;SDS011;27613;48.116;11.656;2023-07-22T03:50:21;3.25;;;2.33;;
41923;SDS011;27613;48.116;11.656;2023-07-22T03:52:47;2.83;;;2.35;;
41923;SDS011;27613;48.116;11.656;2023-07-22T03:55:13;4.00;;;2.58;;
41923;SDS011;27613;48.116;11.656;2023-07-22T03:57:38;3.38;;;2.28;;
41923;SDS011;27613;48.116;11.656;2023-07-22T04:00:06;4.20;;;2.70;;
41923;SDS011;27613;48.116;11.656;2023-07-22T04:02:34;4.30;;;2.88;;
41923;SDS011;27613;48.116;11.656;2023-07-22T04:05:00;4.80;;;2.92;;
41923;SDS011;27613;48.116;11.656;2023-07-22T04:07:25;5.68;;;3.20;;
41923;SDS011;27613;48.116;11.656;2023-07-22T04:09:51;6.95;;;3.05;;
41923;SDS011;27613;48.116;11.656;2023-07-22T04:12:17;4.40;;;2.70;;
41923;SDS011;27613;48.116;11.656;2023-07-22T04:14:42;4.47;;;2.83;;
41923;SDS011;27613;48.116;11.656;2023-07-22T04:17:08;5.57;;;2.88;;
41923;SDS011;27613;48.116;11.656;2023-07-22T04:19:34;4.70;;;2.88;;
41923;SDS011;27613;48.116;11.656;2023-07-22T04:21:59;4.32;;;2.70;;
41923;SDS011;27613;48.116;11.656;2023-07-22T04:24:29;3.20;;;2.50;;
41923;SDS011;27613;48.116;11.656;2023-07-22T04:26:56;4.05;;;2.33;;
41923;SDS011;27613;48.116;11.656;2023-07-22T04:29:21;4.05;;;2.92;;
41923;SDS011;27613;48.116;11.656;2023-07-22T04:31:47;4.57;;;3.08;;
41923;SDS011;27613;48.116;11.656;2023-07-22T04:34:12;4.30;;;2.88;;
41923;SDS011;27613;48.116;11.656;2023-07-22T04:36:38;3.20;;;2.35;;
41923;SDS011;27613;48.116;11.656;2023-07-22T04:39:03;4.20;;;2.65;;
41923;SDS011;27613;48.116;11.656;2023-07-22T04:41:38;4.00;;;2.83;;
41923;SDS011;27613;48.116;11.656;2023-07-22T04:44:04;4.00;;;2.67;;
41923;SDS011;27613;48.116;11.656;2023-07-22T04:46:29;3.33;;;2.22;;
41923;SDS011;27613;48.116;11.656;2023-07-22T04:48:55;6.40;;;2.90;;
41923;SDS011;27613;48.116;11.656;2023-07-22T04:51:23;4.05;;;2.80;;
41923;SDS011;27613;48.116;11.656;2023-07-22T04:53:48;4.10;;;2.22;;
41923;SDS011;27613;48.116;11.656;2023-07-22T04:56:14;2.70;;;2.08;;
41923;SDS011;27613;48.116;11.656;2023-07-22T04:58:40;3.42;;;2.60;;
41923;SDS011;27613;48.116;11.656;2023-07-22T05:01:05;3.42;;;2.55;;
41923;SDS011;27613;48.116;11.656;2023-07-22T05:03:31;3.88;;;2.75;;
41923;SDS011;27613;48.116;11.656;2023-07-22T05:05:56;3.75;;;2.80;;
41923;SDS011;27613;48.116;11.656;2023-07-22T05:08:23;3.65;;;2.60;;
41923;SDS011;27613;48.116;11.656;2023-07-22T05:10:48;5.10;;;2.70;;
41923;SDS011;27613;48.116;11.656;2023-07-22T05:13:14;3.38;;;2.45;;
41923;SDS011;27613;48.116;11.656;2023-07-22T05:15:40;3.70;;;2.70;;
41923;SDS011;27613;48.116;11.656;2023-07-22T05:18:05;2.95;;;2.47;;
41923;SDS011;27613;48.116;11.656;2023-07-22T05:20:31;3.05;;;2.28;;
41923;SDS011;27613;48.116;11.656;2023-07-22T05:22:56;3.83;;;2.38;;
41923;SDS011;27613;48.116;11.656;2023-07-22T05:25:22;5.10;;;2.80;;
41923;SDS011;27613;48.116;11.656;2023-07-22T05:27:49;4.15;;;2.75;;
41923;SDS011;27613;48.116;11.656;2023-07-22T05:30:14;5.78;;;3.20;;
41923;SDS011;27613;48.116;11.656;2023-07-22T05:32:40;4.75;;;2.67;;
41923;SDS011;27613;48.116;11.656;2023-07-22T05:35:05;4.60;;;3.25;;
41923;SDS011;27613;48.116;11.656;2023-07-22T05:37:31;3.50;;;2.40;;
41923;SDS011;27613;48.116;11.656;2023-07-22T05:39:57;3.85;;;2.63;;
41923;SDS011;27613;48.116;11.656;2023-07-22T05:42:24;4.00;;;2.10;;
41923;SDS011;27613;48.116;11.656;2023-07-22T05:44:49;3.25;;;2.38;;
41923;SDS011;27613;48.116;11.656;2023-07-22T05:47:15;2.70;;;2.05;;
41923;SDS011;27613;48.116;11.656;2023-07-22T05:49:40;2.92;;;1.95;;
41923;SDS011;27613;48.116;11.656;2023-07-22T05:52:06;2.65;;;2.03;;
41923;SDS011;27613;48.116;11.656;2023-07-22T05:54:32;3.50;;;2.38;;
41923;SDS011;27613;48.116;11.656;2023-07-22T05:56:57;2.78;;;2.08;;
41923;SDS011;27613;48.116;11.656;2023-07-22T05:59:23;3.50;;;2.00;;
41923;SDS011;27613;48.116;11.656;2023-07-22T06:01:48;2.88;;;2.10;;
41923;SDS011;27613;48.116;11.656;2023-07-22T06:04:14;2.78;;;2.00;;
41923;SDS011;27613;48.116;11.656;2023-07-22T06:06:40;2.60;;;1.92;;
41923;SDS011;27613;48.116;11.656;2023-07-22T06:09:05;3.30;;;2.00;;
41923;SDS011;27613;48.116;11.656;2023-07-22T06:11:31;4.90;;;2.33;;
41923;SDS011;27613;48.116;11.656;2023-07-22T06:13:56;3.50;;;2.10;;
41923;SDS011;27613;48.116;11.656;2023-07-22T06:16:22;3.45;;;1.95;;
41923;SDS011;27613;48.116;11.656;2023-07-22T06:18:47;2.28;;;1.88;;
41923;SDS011;27613;48.116;11.656;2023-07-22T06:21:13;5.25;;;2.42;;
41923;SDS011;27613;48.116;11.656;2023-07-22T06:23:38;5.07;;;2.20;;
41923;SDS011;27613;48.116;11.656;2023-07-22T06:26:04;2.67;;;1.90;;
41923;SDS011;27613;48.116;11.656;2023-07-22T06:28:30;2.83;;;1.70;;
41923;SDS011;27613;48.116;11.656;2023-07-22T06:30:55;3.55;;;2.35;;
41923;SDS011;27613;48.116;11.656;2023-07-22T06:33:22;3.42;;;2.05;;
41923;SDS011;27613;48.116;11.656;2023-07-22T06:35:47;3.95;;;2.22;;
41923;SDS011;27613;48.116;11.656;2023-07-22T06:38:13;3.47;;;1.90;;
41923;SDS011;27613;48.116;11.656;2023-07-22T06:40:38;3.15;;;1.83;;
41923;SDS011;27613;48.116;11.656;2023-07-22T06:43:04;2.30;;;1.70;;
41923;SDS011;27613;48.116;11.656;2023-07-22T06:45:31;2.97;;;1.80;;
41923;SDS011;27613;48.116;11.656;2023-07-22T06:47:57;4.60;;;1.83;;
41923;SDS011;27613;48.116;11.656;2023-07-22T06:50:22;3.40;;;1.92;;
41923;SDS011;27613;48.116;11.656;2023-07-22T06:52:48;2.00;;;1.30;;
41923;SDS011;27613;48.116;11.656;2023-07-22T06:55:14;2.50;;;1.67;;
41923;SDS011;27613;48.116;11.656;2023-07-22T06:57:40;3.08;;;1.50;;
41923;SDS011;27613;48.116;11.656;2023-07-22T07:00:05;1.85;;;1.20;;
41923;SDS011;27613;48.116;11.656;2023-07-22T07:02:31;2.20;;;1.40;;
41923;SDS011;27613;48.116;11.656;2023-07-22T07:04:57;2.03;;;1.40;;
41923;SDS011;27613;48.116;11.656;2023-07-22T07:07:22;1.90;;;1.27;;
41923;SDS011;27613;48.116;11.656;2023-07-22T07:09:48;2.88;;;1.52;;
41923;SDS011;27613;48.116;11.656;2023-07-22T07:12:14;2.33;;;1.30;;
41923;SDS011;27613;48.116;11.656;2023-07-22T07:14:39;4.07;;;1.55;;
41923;SDS011;27613;48.116;11.656;2023-07-22T07:17:05;2.55;;;1.35;;
41923;SDS011;27613;48.116;11.656;2023-07-22T07:19:31;2.13;;;1.40;;
41923;SDS011;27613;48.116;11.656;2023-07-22T07:21:56;2.15;;;1.48;;
41923;SDS011;27613;48.116;11.656;2023-07-22T07:24:22;2.13;;;1.35;;
41923;SDS011;27613;48.116;11.656;2023-07-22T07:26:47;2.08;;;1.40;;
41923;SDS011;27613;48.116;11.656;2023-07-22T07:29:14;2.25;;;1.17;;
41923;SDS011;27613;48.116;11.656;2023-07-22T07:31:40;2.15;;;1.40;;
41923;SDS011;27613;48.116;11.656;2023-07-22T07:34:05;1.98;;;1.30;;
41923;SDS011;27613;48.116;11.656;2023-07-22T07:36:32;1.98;;;1.20;;
41923;SDS011;27613;48.116;11.656;2023-07-22T07:38:58;2.80;;;1.67;;
41923;SDS011;27613;48.116;11.656;2023-07-22T07:41:24;2.53;;;1.23;;
41923;SDS011;27613;48.116;11.656;2023-07-22T07:43:49;8.75;;;1.38;;
41923;SDS011;27613;48.116;11.656;2023-07-22T07:46:19;2.75;;;1.55;;
41923;SDS011;27613;48.116;11.656;2023-07-22T07:51:19;3.20;;;1.20;;
41923;SDS011;27613;48.116;11.656;2023-07-22T07:53:46;2.42;;;1.30;;
41923;SDS011;27613;48.116;11.656;2023-07-22T07:56:12;2.50;;;1.30;;
41923;SDS011;27613;48.116;11.656;2023-07-22T07:58:38;2.30;;;1.20;;
41923;SDS011;27613;48.116;11.656;2023-07-22T08:01:04;1.98;;;1.17;;
41923;SDS011;27613;48.116;11.656;2023-07-22T08:03:30;2.63;;;1.73;;
41923;SDS011;27613;48.116;11.656;2023-07-22T08:05:57;2.08;;;1.40;;
41923;SDS011;27613;48.116;11.656;2023-07-22T08:08:22;1.67;;;0.98;;
41923;SDS011;27613;48.116;11.656;2023-07-22T08:11:02;1.77;;;1.40;;
41923;SDS011;27613;48.116;11.656;2023-07-22T08:13:29;2.00;;;1.10;;
41923;SDS011;27613;48.116;11.656;2023-07-22T08:15:57;1.60;;;1.20;;
41923;SDS011;27613;48.116;11.656;2023-07-22T08:18:23;3.83;;;1.35;;
41923;SDS011;27613;48.116;11.656;2023-07-22T08:20:49;3.35;;;1.60;;
41923;SDS011;27613;48.116;11.656;2023-07-22T08:23:16;1.65;;;1.20;;
41923;SDS011;27613;48.116;11.656;2023-07-22T08:25:41;2.22;;;1.10;;
41923;SDS011;27613;48.116;11.656;2023-07-22T08:28:07;1.67;;;1.33;;
41923;SDS011;27613;48.116;11.656;2023-07-22T08:30:32;2.45;;;1.40;;
41923;SDS011;27613;48.116;11.656;2023-07-22T08:32:58;2.08;;;1.30;;
41923;SDS011;27613;48.116;11.656;2023-07-22T08:35:23;1.17;;;1.00;;
41923;SDS011;27613;48.116;11.656;2023-07-22T08:37:49;2.83;;;1.40;;
41923;SDS011;27613;48.116;11.656;2023-07-22T08:40:15;1.45;;;1.10;;
41923;SDS011;27613;48.116;11.656;2023-07-22T08:42:41;1.90;;;1.45;;
41923;SDS011;27613;48.116;11.656;2023-07-22T08:45:08;2.13;;;1.45;;
41923;SDS011;27613;48.116;11.656;2023-07-22T08:47:35;3.35;;;1.20;;
41923;SDS011;27613;48.116;11.656;2023-07-22T08:50:04;1.27;;;1.10;;
41923;SDS011;27613;48.116;11.656;2023-07-22T08:52:32;2.47;;;1.20;;
41923;SDS011;27613;48.116;11.656;2023-07-22T08:54:59;1.80;;;1.23;;
41923;SDS011;27613;48.116;11.656;2023-07-22T08:57:26;1.48;;;1.08;;
41923;SDS011;27613;48.116;11.656;2023-07-22T08:59:54;1.92;;;1.17;;
41923;SDS011;27613;48.116;11.656;2023-07-22T09:02:22;4.80;;;1.25;;
41923;SDS011;27613;48.116;11.656;2023-07-22T09:04:50;2.05;;;1.25;;
41923;SDS011;27613;48.116;11.656;2023-07-22T09:07:15;1.77;;;1.30;;
41923;SDS011;27613;48.116;11.656;2023-07-22T09:09:43;2.33;;;1.20;;
41923;SDS011;27613;48.116;11.656;2023-07-22T09:12:11;1.85;;;1.38;;
41923;SDS011;27613;48.116;11.656;2023-07-22T09:14:38;1.90;;;1.27;;
41923;SDS011;27613;48.116;11.656;2023-07-22T09:17:05;1.80;;;1.10;;
41923;SDS011;27613;48.116;11.656;2023-07-22T09:19:31;2.08;;;1.08;;
41923;SDS011;27613;48.116;11.656;2023-07-22T09:21:56;1.33;;;1.00;;
41923;SDS011;27613;48.116;11.656;2023-07-22T09:24:24;1.77;;;1.00;;
41923;SDS011;27613;48.116;11.656;2023-07-22T09:26:50;1.55;;;1.00;;
41923;SDS011;27613;48.116;11.656;2023-07-22T09:29:16;1.80;;;1.10;;
41923;SDS011;27613;48.116;11.656;2023-07-22T09:31:50;1.50;;;1.00;;
41923;SDS011;27613;48.116;11.656;2023-07-22T09:34:18;2.30;;;1.10;;
41923;SDS011;27613;48.116;11.656;2023-07-22T09:36:54;1.67;;;0.90;;
41923;SDS011;27613;48.116;11.656;2023-07-22T09:39:21;1.75;;;1.02;;
41923;SDS011;27613;48.116;11.656;2023-07-22T09:41:47;1.33;;;0.98;;
41923;SDS011;27613;48.116;11.656;2023-07-22T09:44:13;0.90;;;0.85;;
41923;SDS011;27613;48.116;11.656;2023-07-22T09:46:39;1.83;;;0.95;;
41923;SDS011;27613;48.116;11.656;2023-07-22T09:49:06;1.27;;;1.00;;
41923;SDS011;27613;48.116;11.656;2023-07-22T09:51:43;1.38;;;0.85;;
41923;SDS011;27613;48.116;11.656;2023-07-22T09:56:45;1.00;;;0.90;;
41923;SDS011;27613;48.116;11.656;2023-07-22T09:59:12;1.48;;;1.08;;
41923;SDS011;27613;48.116;11.656;2023-07-22T10:01:39;2.13;;;1.10;;
41923;SDS011;27613;48.116;11.656;2023-07-22T10:04:06;1.15;;;0.90;;
41923;SDS011;27613;48.116;11.656;2023-07-22T10:06:32;0.77;;;0.68;;
41923;SDS011;27613;48.116;11.656;2023-07-22T10:09:01;1.85;;;1.20;;
41923;SDS011;27613;48.116;11.656;2023-07-22T10:11:33;2.00;;;0.93;;
41923;SDS011;27613;48.116;11.656;2023-07-22T10:14:01;1.63;;;0.95;;
41923;SDS011;27613;48.116;11.656;2023-07-22T10:16:27;2.05;;;0.77;;
41923;SDS011;27613;48.116;11.656;2023-07-22T10:18:53;0.70;;;0.70;;
41923;SDS011;27613;48.116;11.656;2023-07-22T10:21:20;1.33;;;0.90;;
41923;SDS011;27613;48.116;11.656;2023-07-22T10:23:46;1.27;;;0.85;;
41923;SDS011;27613;48.116;11.656;2023-07-22T10:26:14;1.90;;;0.95;;
41923;SDS011;27613;48.116;11.656;2023-07-22T10:28:41;1.92;;;1.00;;
41923;SDS011;27613;48.116;11.656;2023-07-22T10:31:09;1.20;;;1.00;;
41923;SDS011;27613;48.116;11.656;2023-07-22T10:33:34;1.23;;;1.00;;
41923;SDS011;27613;48.116;11.656;2023-07-22T10:38:30;1.58;;;1.00;;
41923;SDS011;27613;48.116;11.656;2023-07-22T10:40:57;1.52;;;1.20;;
41923;SDS011;27613;48.116;11.656;2023-07-22T10:43:26;1.15;;;0.80;;
41923;SDS011;27613;48.116;11.656;2023-07-22T10:45:57;6.43;;;1.30;;
41923;SDS011;27613;48.116;11.656;2023-07-22T10:48:27;1.85;;;1.20;;
41923;SDS011;27613;48.116;11.656;2023-07-22T10:51:04;1.90;;;1.00;;
41923;SDS011;27613;48.116;11.656;2023-07-22T10:53:44;1.98;;;1.23;;
41923;SDS011;27613;48.116;11.656;2023-07-22T10:56:29;3.47;;;2.60;;
41923;SDS011;27613;48.116;11.656;2023-07-22T10:58:56;1.83;;;1.20;;
41923;SDS011;27613;48.116;11.656;2023-07-22T11:06:39;1.35;;;0.90;;
41923;SDS011;27613;48.116;11.656;2023-07-22T11:09:32;1.05;;;0.88;;
41923;SDS011;27613;48.116;11.656;2023-07-22T11:14:26;1.90;;;0.75;;
41923;SDS011;27613;48.116;11.656;2023-07-22T11:16:53;1.10;;;0.85;;
41923;SDS011;27613;48.116;11.656;2023-07-22T11:19:22;1.20;;;0.95;;
41923;SDS011;27613;48.116;11.656;2023-07-22T11:21:51;1.35;;;1.00;;
41923;SDS011;27613;48.116;11.656;2023-07-22T11:24:19;0.98;;;0.90;;
41923;SDS011;27613;48.116;11.656;2023-07-22T11:26:46;3.13;;;0.88;;
41923;SDS011;27613;48.116;11.656;2023-07-22T11:29:12;1.42;;;1.08;;
41923;SDS011;27613;48.116;11.656;2023-07-22T11:31:42;1.33;;;0.93;;
41923;SDS011;27613;48.116;11.656;2023-07-22T11:34:10;4.68;;;0.85;;
41923;SDS011;27613;48.116;11.656;2023-07-22T11:36:36;1.00;;;0.70;;
41923;SDS011;27613;48.116;11.656;2023-07-22T11:39:05;1.08;;;0.90;;
41923;SDS011;27613;48.116;11.656;2023-07-22T11:41:35;1.30;;;0.98;;
41923;SDS011;27613;48.116;11.656;2023-07-22T11:44:02;2.47;;;1.10;;
41923;SDS011;27613;48.116;11.656;2023-07-22T11:46:34;1.40;;;1.00;;
41923;SDS011;27613;48.116;11.656;2023-07-22T11:49:00;1.58;;;1.00;;
41923;SDS011;27613;48.116;11.656;2023-07-22T11:51:26;1.08;;;0.98;;
41923;SDS011;27613;48.116;11.656;2023-07-22T11:53:53;1.10;;;0.93;;
41923;SDS011;27613;48.116;11.656;2023-07-22T11:56:26;1.10;;;1.00;;
41923;SDS011;27613;48.116;11.656;2023-07-22T11:58:53;1.83;;;1.00;;
41923;SDS011;27613;48.116;11.656;2023-07-22T12:01:20;3.33;;;0.98;;
41923;SDS011;27613;48.116;11.656;2023-07-22T12:03:47;1.80;;;0.95;;
41923;SDS011;27613;48.116;11.656;2023-07-22T12:06:13;1.60;;;0.90;;
41923;SDS011;27613;48.116;11.656;2023-07-22T12:08:43;2.58;;;1.15;;
41923;SDS011;27613;48.116;11.656;2023-07-22T12:11:20;1.00;;;0.90;;
41923;SDS011;27613;48.116;11.656;2023-07-22T12:14:03;0.95;;;0.85;;
41923;SDS011;27613;48.116;11.656;2023-07-22T12:16:29;1.15;;;0.80;;
41923;SDS011;27613;48.116;11.656;2023-07-22T12:18:55;1.60;;;1.10;;
41923;SDS011;27613;48.116;11.656;2023-07-22T12:21:21;1.20;;;1.10;;
41923;SDS011;27613;48.116;11.656;2023-07-22T12:23:47;1.17;;;1.00;;
41923;SDS011;27613;48.116;11.656;2023-07-22T12:26:12;1.20;;;1.00;;
41923;SDS011;27613;48.116;11.656;2023-07-22T12:28:38;1.40;;;1.00;;
41923;SDS011;27613;48.116;11.656;2023-07-22T12:31:04;2.13;;;1.02;;
41923;SDS011;27613;48.116;11.656;2023-07-22T12:33:29;1.17;;;1.00;;
41923;SDS011;27613;48.116;11.656;2023-07-22T12:35:56;1.00;;;0.90;;
41923;SDS011;27613;48.116;11.656;2023-07-22T12:38:22;1.60;;;1.10;;
41923;SDS011;27613;48.116;11.656;2023-07-22T12:40:48;2.20;;;1.45;;
41923;SDS011;27613;48.116;11.656;2023-07-22T12:43:13;3.15;;;1.48;;
41923;SDS011;27613;48.116;11.656;2023-07-22T12:45:39;1.80;;;1.30;;
41923;SDS011;27613;48.116;11.656;2023-07-22T12:48:05;1.58;;;1.30;;
41923;SDS011;27613;48.116;11.656;2023-07-22T12:50:30;1.65;;;1.17;;
41923;SDS011;27613;48.116;11.656;2023-07-22T12:53:00;1.67;;;1.20;;
41923;SDS011;27613;48.116;11.656;2023-07-22T12:55:26;1.70;;;1.10;;
41923;SDS011;27613;48.116;11.656;2023-07-22T12:57:53;1.90;;;1.33;;
41923;SDS011;27613;48.116;11.656;2023-07-22T13:00:19;3.22;;;1.90;;
41923;SDS011;27613;48.116;11.656;2023-07-22T13:02:44;3.10;;;1.25;;
41923;SDS011;27613;48.116;11.656;2023-07-22T13:05:10;1.00;;;0.80;;
41923;SDS011;27613;48.116;11.656;2023-07-22T13:07:35;1.58;;;1.20;;
41923;SDS011;27613;48.116;11.656;2023-07-22T13:10:02;1.00;;;0.90;;
41923;SDS011;27613;48.116;11.656;2023-07-22T13:12:31;1.58;;;1.00;;
41923;SDS011;27613;48.116;11.656;2023-07-22T13:14:57;1.50;;;1.20;;
41923;SDS011;27613;48.116;11.656;2023-07-22T13:17:22;1.60;;;1.20;;
41923;SDS011;27613;48.116;11.656;2023-07-22T13:19:48;2.45;;;1.20;;
41923;SDS011;27613;48.116;11.656;2023-07-22T13:22:13;1.33;;;1.00;;
41923;SDS011;27613;48.116;11.656;2023-07-22T13:24:39;1.48;;;1.02;;
41923;SDS011;27613;48.116;11.656;2023-07-22T13:27:06;1.58;;;1.02;;
41923;SDS011;27613;48.116;11.656;2023-07-22T13:29:31;1.85;;;1.35;;
41923;SDS011;27613;48.116;11.656;2023-07-22T13:31:57;1.83;;;1.10;;
41923;SDS011;27613;48.116;11.656;2023-07-22T13:34:23;1.48;;;1.20;;
41923;SDS011;27613;48.116;11.656;2023-07-22T13:36:48;1.50;;;1.15;;
41923;SDS011;27613;48.116;11.656;2023-07-22T13:39:14;2.08;;;1.45;;
41923;SDS011;27613;48.116;11.656;2023-07-22T13:41:39;3.22;;;1.20;;
41923;SDS011;27613;48.116;11.656;2023-07-22T13:44:05;1.50;;;1.02;;
41923;SDS011;27613;48.116;11.656;2023-07-22T13:46:31;1.00;;;0.90;;
41923;SDS011;27613;48.116;11.656;2023-07-22T13:48:56;2.13;;;1.17;;
41923;SDS011;27613;48.116;11.656;2023-07-22T13:51:22;1.98;;;1.35;;
41923;SDS011;27613;48.116;11.656;2023-07-22T13:53:47;1.10;;;1.00;;
41923;SDS011;27613;48.116;11.656;2023-07-22T13:56:13;1.60;;;1.08;;
41923;SDS011;27613;48.116;11.656;2023-07-22T13:58:39;2.05;;;1.40;;
41923;SDS011;27613;48.116;11.656;2023-07-22T14:01:04;1.65;;;1.20;;
41923;SDS011;27613;48.116;11.656;2023-07-22T14:03:30;1.05;;;0.95;;
41923;SDS011;27613;48.116;11.656;2023-07-22T14:05:56;2.00;;;1.20;;
41923;SDS011;27613;48.116;11.656;2023-07-22T14:08:22;1.70;;;1.17;;
41923;SDS011;27613;48.116;11.656;2023-07-22T14:10:47;1.10;;;0.80;;
41923;SDS011;27613;48.116;11.656;2023-07-22T14:13:13;1.55;;;1.08;;
41923;SDS011;27613;48.116;11.656;2023-07-22T14:15:38;1.85;;;1.20;;
41923;SDS011;27613;48.116;11.656;2023-07-22T14:18:04;1.50;;;1.17;;
41923;SDS011;27613;48.116;11.656;2023-07-22T14:20:30;1.65;;;1.15;;
41923;SDS011;27613;48.116;11.656;2023-07-22T14:22:55;1.77;;;1.10;;
41923;SDS011;27613;48.116;11.656;2023-07-22T14:25:22;1.90;;;1.25;;
41923;SDS011;27613;48.116;11.656;2023-07-22T14:27:47;2.25;;;1.20;;
41923;SDS011;27613;48.116;11.656;2023-07-22T14:30:13;1.63;;;1.33;;
41923;SDS011;27613;48.116;11.656;2023-07-22T14:32:39;1.60;;;1.23;;
41923;SDS011;27613;48.116;11.656;2023-07-22T14:35:05;1.52;;;1.10;;
41923;SDS011;27613;48.116;11.656;2023-07-22T14:37:31;1.30;;;1.10;;
41923;SDS011;27613;48.116;11.656;2023-07-22T14:39:56;2.08;;;1.33;;
41923;SDS011;27613;48.116;11.656;2023-07-22T14:42:22;1.58;;;1.27;;
41923;SDS011;27613;48.116;11.656;2023-07-22T14:44:47;1.63;;;1.10;;